sensor_id;sensor_type;location;lat;lon;timestamp;pressure;altitude;pressure_sealevel;temperature;humidity
7768;BME280;3928;42.626;23.382;2023-08-20T00:01:05;94452.06;;;24.75;55.69
7768;BME280;3928;42.626;23.382;2023-08-20T00:03:34;94460.56;;;24.79;55.38
7768;BME280;3928;42.626;23.382;2023-08-20T00:06:01;94471.38;;;24.87;54.33
7768;BME280;3928;42.626;23.382;2023-08-20T00:08:29;94455.72;;;24.86;54.50
7768;BME280;3928;42.626;23.382;2023-08-20T00:10:56;94464.00;;;24.92;53.84
7768;BME280;3928;42.626;23.382;2023-08-20T00:13:23;94448.28;;;24.67;54.01
7768;BME280;3928;42.626;23.382;2023-08-20T00:15:50;94468.66;;;24.76;53.89
7768;BME280;3928;42.626;23.382;2023-08-20T00:18:17;94465.19;;;24.75;54.09
7768;BME280;3928;42.626;23.382;2023-08-20T00:20:46;94464.44;;;24.73;54.41
7768;BME280;3928;42.626;23.382;2023-08-20T00:23:14;94453.84;;;24.75;54.14
7768;BME280;3928;42.626;23.382;2023-08-20T00:25:41;94461.28;;;24.81;54.20
7768;BME280;3928;42.626;23.382;2023-08-20T00:28:09;94472.75;;;24.80;54.25
7768;BME280;3928;42.626;23.382;2023-08-20T00:30:36;94452.25;;;24.72;54.02
7768;BME280;3928;42.626;23.382;2023-08-20T00:33:03;94467.91;;;24.87;54.14
7768;BME280;3928;42.626;23.382;2023-08-20T00:35:30;94462.25;;;24.80;54.23
7768;BME280;3928;42.626;23.382;2023-08-20T00:37:58;94468.94;;;24.84;53.87
7768;BME280;3928;42.626;23.382;2023-08-20T00:40:25;94469.16;;;24.81;54.23
7768;BME280;3928;42.626;23.382;2023-08-20T00:42:52;94463.28;;;24.90;53.44
7768;BME280;3928;42.626;23.382;2023-08-20T00:45:19;94465.78;;;24.92;53.52
7768;BME280;3928;42.626;23.382;2023-08-20T00:47:46;94458.41;;;24.97;53.19
7768;BME280;3928;42.626;23.382;2023-08-20T00:50:13;94457.69;;;24.95;53.15
7768;BME280;3928;42.626;23.382;2023-08-20T00:52:40;94460.00;;;24.99;53.51
7768;BME280;3928;42.626;23.382;2023-08-20T00:55:10;94458.63;;;24.94;53.70
7768;BME280;3928;42.626;23.382;2023-08-20T00:57:39;94467.88;;;24.99;53.22
7768;BME280;3928;42.626;23.382;2023-08-20T01:00:06;94445.19;;;24.86;53.27
7768;BME280;3928;42.626;23.382;2023-08-20T01:02:36;94456.25;;;25.03;53.46
7768;BME280;3928;42.626;23.382;2023-08-20T01:05:05;94423.59;;;24.69;53.27
7768;BME280;3928;42.626;23.382;2023-08-20T01:07:43;94465.81;;;24.66;54.80
7768;BME280;3928;42.626;23.382;2023-08-20T01:10:18;94445.47;;;24.32;55.33
7768;BME280;3928;42.626;23.382;2023-08-20T01:12:46;94433.44;;;24.15;56.28
7768;BME280;3928;42.626;23.382;2023-08-20T01:15:13;94457.03;;;24.15;56.97
7768;BME280;3928;42.626;23.382;2023-08-20T01:17:41;94449.81;;;24.06;56.94
7768;BME280;3928;42.626;23.382;2023-08-20T01:20:08;94442.00;;;23.91;57.74
7768;BME280;3928;42.626;23.382;2023-08-20T01:22:52;94459.50;;;23.78;58.27
7768;BME280;3928;42.626;23.382;2023-08-20T01:25:32;94455.72;;;23.70;59.08
7768;BME280;3928;42.626;23.382;2023-08-20T01:30:35;94462.06;;;23.66;59.28
7768;BME280;3928;42.626;23.382;2023-08-20T01:33:03;94413.97;;;23.40;59.70
7768;BME280;3928;42.626;23.382;2023-08-20T01:35:30;94456.78;;;23.80;58.89
7768;BME280;3928;42.626;23.382;2023-08-20T01:37:57;94453.13;;;23.82;58.95
7768;BME280;3928;42.626;23.382;2023-08-20T01:40:23;94448.28;;;23.76;59.25
7768;BME280;3928;42.626;23.382;2023-08-20T01:42:50;94441.47;;;23.47;60.54
7768;BME280;3928;42.626;23.382;2023-08-20T01:45:17;94437.75;;;23.37;60.86
7768;BME280;3928;42.626;23.382;2023-08-20T01:47:46;94438.59;;;23.37;61.09
7768;BME280;3928;42.626;23.382;2023-08-20T01:50:13;94438.13;;;23.30;61.48
7768;BME280;3928;42.626;23.382;2023-08-20T01:52:39;94428.59;;;23.29;61.32
7768;BME280;3928;42.626;23.382;2023-08-20T01:55:07;94441.59;;;23.31;61.60
7768;BME280;3928;42.626;23.382;2023-08-20T01:57:34;94439.22;;;23.41;60.90
7768;BME280;3928;42.626;23.382;2023-08-20T02:00:01;94440.16;;;23.40;61.76
7768;BME280;3928;42.626;23.382;2023-08-20T02:02:30;94435.13;;;23.37;62.11
7768;BME280;3928;42.626;23.382;2023-08-20T02:04:59;94435.72;;;23.27;61.85
7768;BME280;3928;42.626;23.382;2023-08-20T02:07:25;94433.00;;;23.29;62.65
7768;BME280;3928;42.626;23.382;2023-08-20T02:09:52;94428.16;;;23.23;62.22
7768;BME280;3928;42.626;23.382;2023-08-20T02:12:19;94409.09;;;23.21;62.09
7768;BME280;3928;42.626;23.382;2023-08-20T02:14:46;94404.44;;;23.12;62.12
7768;BME280;3928;42.626;23.382;2023-08-20T02:17:13;94416.66;;;23.25;62.01
7768;BME280;3928;42.626;23.382;2023-08-20T02:19:40;94416.84;;;23.22;62.12
7768;BME280;3928;42.626;23.382;2023-08-20T02:22:08;94418.94;;;23.30;62.11
7768;BME280;3928;42.626;23.382;2023-08-20T02:24:35;94414.38;;;23.33;62.15
7768;BME280;3928;42.626;23.382;2023-08-20T02:27:02;94416.78;;;23.37;61.84
7768;BME280;3928;42.626;23.382;2023-08-20T02:29:29;94418.94;;;23.30;61.58
7768;BME280;3928;42.626;23.382;2023-08-20T02:31:56;94410.88;;;23.06;62.71
7768;BME280;3928;42.626;23.382;2023-08-20T02:34:23;94417.28;;;23.02;62.96
7768;BME280;3928;42.626;23.382;2023-08-20T02:36:50;94396.06;;;22.92;62.58
7768;BME280;3928;42.626;23.382;2023-08-20T02:39:20;94354.13;;;22.65;62.73
7768;BME280;3928;42.626;23.382;2023-08-20T02:41:47;94409.22;;;23.05;62.95
7768;BME280;3928;42.626;23.382;2023-08-20T02:44:13;94408.63;;;23.14;62.96
7768;BME280;3928;42.626;23.382;2023-08-20T02:46:40;94409.00;;;23.22;62.70
7768;BME280;3928;42.626;23.382;2023-08-20T02:49:10;94419.09;;;23.14;62.63
7768;BME280;3928;42.626;23.382;2023-08-20T02:51:37;94401.41;;;22.91;63.07
7768;BME280;3928;42.626;23.382;2023-08-20T02:54:05;94413.81;;;23.01;63.15
7768;BME280;3928;42.626;23.382;2023-08-20T02:56:33;94417.66;;;22.96;63.21
7768;BME280;3928;42.626;23.382;2023-08-20T02:59:00;94424.22;;;22.89;63.35
7768;BME280;3928;42.626;23.382;2023-08-20T03:01:26;94428.72;;;22.87;63.54
7768;BME280;3928;42.626;23.382;2023-08-20T03:03:53;94436.06;;;22.80;64.06
7768;BME280;3928;42.626;23.382;2023-08-20T03:06:20;94429.72;;;22.70;64.14
7768;BME280;3928;42.626;23.382;2023-08-20T03:08:47;94435.97;;;22.67;64.21
7768;BME280;3928;42.626;23.382;2023-08-20T03:11:14;94430.28;;;22.61;64.57
7768;BME280;3928;42.626;23.382;2023-08-20T03:13:42;94423.47;;;22.58;64.73
7768;BME280;3928;42.626;23.382;2023-08-20T03:16:09;94413.72;;;22.60;64.46
7768;BME280;3928;42.626;23.382;2023-08-20T03:18:35;94416.00;;;22.52;64.81
7768;BME280;3928;42.626;23.382;2023-08-20T03:21:02;94425.72;;;22.64;64.11
7768;BME280;3928;42.626;23.382;2023-08-20T03:23:29;94414.66;;;22.59;64.32
7768;BME280;3928;42.626;23.382;2023-08-20T03:25:57;94421.13;;;22.68;64.55
7768;BME280;3928;42.626;23.382;2023-08-20T03:28:24;94424.94;;;22.76;64.20
7768;BME280;3928;42.626;23.382;2023-08-20T03:30:53;94406.91;;;22.72;64.15
7768;BME280;3928;42.626;23.382;2023-08-20T03:33:19;94387.22;;;22.66;64.02
7768;BME280;3928;42.626;23.382;2023-08-20T03:35:46;94413.94;;;22.86;63.63
7768;BME280;3928;42.626;23.382;2023-08-20T03:38:13;94426.84;;;22.89;63.32
7768;BME280;3928;42.626;23.382;2023-08-20T03:40:40;94412.91;;;22.88;63.54
7768;BME280;3928;42.626;23.382;2023-08-20T03:43:07;94394.50;;;22.75;63.50
7768;BME280;3928;42.626;23.382;2023-08-20T03:45:33;94400.81;;;23.00;63.41
7768;BME280;3928;42.626;23.382;2023-08-20T03:48:02;94408.00;;;23.11;63.60
7768;BME280;3928;42.626;23.382;2023-08-20T03:50:29;94417.03;;;23.19;63.75
7768;BME280;3928;42.626;23.382;2023-08-20T03:52:56;94403.59;;;23.11;62.81
7768;BME280;3928;42.626;23.382;2023-08-20T03:55:23;94403.50;;;23.13;63.27
7768;BME280;3928;42.626;23.382;2023-08-20T03:57:49;94401.94;;;23.10;63.25
7768;BME280;3928;42.626;23.382;2023-08-20T04:00:16;94405.72;;;23.19;62.99
7768;BME280;3928;42.626;23.382;2023-08-20T04:02:43;94383.97;;;23.04;63.20
7768;BME280;3928;42.626;23.382;2023-08-20T04:05:11;94401.25;;;23.21;63.05
7768;BME280;3928;42.626;23.382;2023-08-20T04:07:38;94402.22;;;23.32;62.58
7768;BME280;3928;42.626;23.382;2023-08-20T04:10:07;94405.16;;;23.41;62.83
7768;BME280;3928;42.626;23.382;2023-08-20T04:12:34;94406.31;;;23.37;62.94
7768;BME280;3928;42.626;23.382;2023-08-20T04:15:01;94409.38;;;23.43;62.52
7768;BME280;3928;42.626;23.382;2023-08-20T04:17:28;94408.97;;;23.49;62.95
7768;BME280;3928;42.626;23.382;2023-08-20T04:19:55;94412.03;;;23.56;62.95
7768;BME280;3928;42.626;23.382;2023-08-20T04:22:23;94397.88;;;23.46;62.57
7768;BME280;3928;42.626;23.382;2023-08-20T04:24:50;94414.84;;;23.53;62.88
7768;BME280;3928;42.626;23.382;2023-08-20T04:27:17;94410.97;;;23.46;61.82
7768;BME280;3928;42.626;23.382;2023-08-20T04:29:44;94410.66;;;23.23;62.47
7768;BME280;3928;42.626;23.382;2023-08-20T04:32:11;94418.84;;;23.31;62.97
7768;BME280;3928;42.626;23.382;2023-08-20T04:34:37;94419.78;;;23.30;63.76
7768;BME280;3928;42.626;23.382;2023-08-20T04:37:04;94421.47;;;23.31;62.63
7768;BME280;3928;42.626;23.382;2023-08-20T04:39:32;94405.72;;;23.19;62.93
7768;BME280;3928;42.626;23.382;2023-08-20T04:41:59;94412.72;;;23.18;63.26
7768;BME280;3928;42.626;23.382;2023-08-20T04:44:26;94416.50;;;23.14;63.64
7768;BME280;3928;42.626;23.382;2023-08-20T04:46:53;94408.13;;;22.95;64.17
7768;BME280;3928;42.626;23.382;2023-08-20T04:49:20;94414.69;;;22.88;65.09
7768;BME280;3928;42.626;23.382;2023-08-20T04:51:47;94416.91;;;22.94;65.10
7768;BME280;3928;42.626;23.382;2023-08-20T04:54:13;94411.19;;;23.01;65.01
7768;BME280;3928;42.626;23.382;2023-08-20T04:56:42;94412.56;;;23.07;65.42
7768;BME280;3928;42.626;23.382;2023-08-20T04:59:08;94381.22;;;22.79;66.15
7768;BME280;3928;42.626;23.382;2023-08-20T05:01:35;94414.91;;;23.12;65.94
7768;BME280;3928;42.626;23.382;2023-08-20T05:04:03;94422.63;;;23.27;65.79
7768;BME280;3928;42.626;23.382;2023-08-20T05:06:29;94405.75;;;23.31;65.92
7768;BME280;3928;42.626;23.382;2023-08-20T05:08:56;94415.25;;;23.47;66.20
7768;BME280;3928;42.626;23.382;2023-08-20T05:11:23;94418.06;;;23.58;65.29
7768;BME280;3928;42.626;23.382;2023-08-20T05:13:51;94417.88;;;23.74;65.28
7768;BME280;3928;42.626;23.382;2023-08-20T05:16:18;94418.63;;;23.88;64.25
7768;BME280;3928;42.626;23.382;2023-08-20T05:18:45;94421.09;;;24.04;64.26
7768;BME280;3928;42.626;23.382;2023-08-20T05:21:12;94420.16;;;24.18;64.35
7768;BME280;3928;42.626;23.382;2023-08-20T05:23:39;94401.91;;;24.16;63.29
7768;BME280;3928;42.626;23.382;2023-08-20T05:26:06;94426.38;;;24.42;63.09
7768;BME280;3928;42.626;23.382;2023-08-20T05:28:33;94423.75;;;24.55;63.03
7768;BME280;3928;42.626;23.382;2023-08-20T05:31:01;94421.81;;;24.70;62.01
7768;BME280;3928;42.626;23.382;2023-08-20T05:33:28;94428.22;;;24.78;61.71
7768;BME280;3928;42.626;23.382;2023-08-20T05:35:55;94432.91;;;24.86;60.21
7768;BME280;3928;42.626;23.382;2023-08-20T05:38:22;94437.88;;;24.78;60.12
7768;BME280;3928;42.626;23.382;2023-08-20T05:40:49;94436.00;;;24.80;59.51
7768;BME280;3928;42.626;23.382;2023-08-20T05:43:16;94437.66;;;24.81;59.27
7768;BME280;3928;42.626;23.382;2023-08-20T05:45:42;94439.13;;;24.85;59.27
7768;BME280;3928;42.626;23.382;2023-08-20T05:48:11;94441.13;;;24.82;59.30
7768;BME280;3928;42.626;23.382;2023-08-20T05:50:37;94432.22;;;24.71;59.33
7768;BME280;3928;42.626;23.382;2023-08-20T05:53:04;94448.56;;;25.00;59.41
7768;BME280;3928;42.626;23.382;2023-08-20T05:55:31;94443.69;;;25.20;58.32
7768;BME280;3928;42.626;23.382;2023-08-20T05:57:58;94449.75;;;25.33;57.10
7768;BME280;3928;42.626;23.382;2023-08-20T06:00:25;94455.50;;;25.38;56.95
7768;BME280;3928;42.626;23.382;2023-08-20T06:02:52;94454.41;;;25.53;56.72
7768;BME280;3928;42.626;23.382;2023-08-20T06:05:20;94444.66;;;25.66;57.41
7768;BME280;3928;42.626;23.382;2023-08-20T06:07:47;94445.59;;;25.78;57.23
7768;BME280;3928;42.626;23.382;2023-08-20T06:10:13;94444.34;;;25.95;56.80
7768;BME280;3928;42.626;23.382;2023-08-20T06:12:40;94431.72;;;26.11;56.25
7768;BME280;3928;42.626;23.382;2023-08-20T06:15:08;94442.09;;;26.37;55.15
7768;BME280;3928;42.626;23.382;2023-08-20T06:17:35;94423.53;;;26.38;54.16
7768;BME280;3928;42.626;23.382;2023-08-20T06:20:03;94441.88;;;26.62;52.33
7768;BME280;3928;42.626;23.382;2023-08-20T06:22:34;94427.28;;;26.69;53.54
7768;BME280;3928;42.626;23.382;2023-08-20T06:25:01;94455.63;;;26.99;52.84
7768;BME280;3928;42.626;23.382;2023-08-20T06:27:28;94441.91;;;27.18;51.83
7768;BME280;3928;42.626;23.382;2023-08-20T06:29:55;94456.97;;;27.38;51.97
7768;BME280;3928;42.626;23.382;2023-08-20T06:32:23;94462.22;;;27.50;51.60
7768;BME280;3928;42.626;23.382;2023-08-20T06:34:49;94458.09;;;27.68;51.87
7768;BME280;3928;42.626;23.382;2023-08-20T06:37:16;94447.72;;;27.87;51.22
7768;BME280;3928;42.626;23.382;2023-08-20T06:39:44;94459.59;;;28.14;50.81
7768;BME280;3928;42.626;23.382;2023-08-20T06:42:11;94457.16;;;28.33;50.50
7768;BME280;3928;42.626;23.382;2023-08-20T06:44:38;94468.78;;;28.51;49.45
7768;BME280;3928;42.626;23.382;2023-08-20T06:47:05;94464.66;;;28.59;46.54
7768;BME280;3928;42.626;23.382;2023-08-20T06:49:32;94467.56;;;28.56;46.43
7768;BME280;3928;42.626;23.382;2023-08-20T06:51:58;94448.25;;;28.55;45.80
7768;BME280;3928;42.626;23.382;2023-08-20T06:54:25;94459.88;;;28.52;44.96
7768;BME280;3928;42.626;23.382;2023-08-20T06:56:53;94467.78;;;28.43;45.08
7768;BME280;3928;42.626;23.382;2023-08-20T06:59:20;94470.66;;;28.61;45.33
7768;BME280;3928;42.626;23.382;2023-08-20T07:01:48;94463.06;;;28.77;45.53
7768;BME280;3928;42.626;23.382;2023-08-20T07:04:15;94466.28;;;28.92;44.48
7768;BME280;3928;42.626;23.382;2023-08-20T07:06:42;94450.47;;;29.01;44.25
7768;BME280;3928;42.626;23.382;2023-08-20T07:09:08;94468.03;;;29.22;43.18
7768;BME280;3928;42.626;23.382;2023-08-20T07:11:35;94465.06;;;29.05;43.45
7768;BME280;3928;42.626;23.382;2023-08-20T07:14:04;94469.16;;;29.19;43.52
7768;BME280;3928;42.626;23.382;2023-08-20T07:16:31;94465.00;;;29.36;42.62
7768;BME280;3928;42.626;23.382;2023-08-20T07:18:58;94471.06;;;29.48;43.23
7768;BME280;3928;42.626;23.382;2023-08-20T07:21:24;94470.44;;;29.75;42.61
7768;BME280;3928;42.626;23.382;2023-08-20T07:23:51;94467.66;;;29.86;41.05
7768;BME280;3928;42.626;23.382;2023-08-20T07:26:18;94466.28;;;30.01;40.46
7768;BME280;3928;42.626;23.382;2023-08-20T07:28:45;94468.78;;;29.74;41.32
7768;BME280;3928;42.626;23.382;2023-08-20T07:31:26;94451.78;;;29.76;42.61
7768;BME280;3928;42.626;23.382;2023-08-20T07:33:54;94467.56;;;30.16;41.89
7768;BME280;3928;42.626;23.382;2023-08-20T07:36:22;94467.66;;;30.05;41.24
7768;BME280;3928;42.626;23.382;2023-08-20T07:38:49;94465.31;;;30.02;41.50
7768;BME280;3928;42.626;23.382;2023-08-20T07:41:16;94464.38;;;30.22;40.78
7768;BME280;3928;42.626;23.382;2023-08-20T07:43:43;94458.19;;;30.51;40.46
7768;BME280;3928;42.626;23.382;2023-08-20T07:46:10;94466.53;;;30.75;39.95
7768;BME280;3928;42.626;23.382;2023-08-20T07:48:39;94469.16;;;30.85;39.04
7768;BME280;3928;42.626;23.382;2023-08-20T07:51:06;94465.38;;;30.88;39.41
7768;BME280;3928;42.626;23.382;2023-08-20T07:53:33;94469.16;;;30.85;38.04
7768;BME280;3928;42.626;23.382;2023-08-20T07:56:01;94468.19;;;30.76;39.12
7768;BME280;3928;42.626;23.382;2023-08-20T07:58:28;94466.47;;;30.95;40.27
7768;BME280;3928;42.626;23.382;2023-08-20T08:00:55;94437.28;;;30.58;38.05
7768;BME280;3928;42.626;23.382;2023-08-20T08:03:22;94462.91;;;30.76;37.66
7768;BME280;3928;42.626;23.382;2023-08-20T08:05:51;94451.00;;;30.90;37.65
7768;BME280;3928;42.626;23.382;2023-08-20T08:08:19;94467.09;;;31.26;37.44
7768;BME280;3928;42.626;23.382;2023-08-20T08:10:46;94460.66;;;31.56;37.19
7768;BME280;3928;42.626;23.382;2023-08-20T08:13:15;94462.28;;;31.84;36.23
7768;BME280;3928;42.626;23.382;2023-08-20T08:15:42;94460.41;;;31.94;35.35
7768;BME280;3928;42.626;23.382;2023-08-20T08:18:09;94465.66;;;32.22;34.70
7768;BME280;3928;42.626;23.382;2023-08-20T08:20:36;94458.28;;;32.51;33.68
7768;BME280;3928;42.626;23.382;2023-08-20T08:23:05;94454.69;;;32.61;34.57
7768;BME280;3928;42.626;23.382;2023-08-20T08:25:31;94466.94;;;32.97;33.47
7768;BME280;3928;42.626;23.382;2023-08-20T08:27:58;94467.00;;;33.05;32.66
7768;BME280;3928;42.626;23.382;2023-08-20T08:30:25;94458.59;;;33.26;32.08
7768;BME280;3928;42.626;23.382;2023-08-20T08:32:52;94459.25;;;33.54;31.65
7768;BME280;3928;42.626;23.382;2023-08-20T08:35:19;94456.28;;;33.73;31.90
7768;BME280;3928;42.626;23.382;2023-08-20T08:37:46;94456.53;;;33.96;31.41
7768;BME280;3928;42.626;23.382;2023-08-20T08:40:14;94451.38;;;33.95;31.69
7768;BME280;3928;42.626;23.382;2023-08-20T08:42:41;94457.59;;;34.12;30.80
7768;BME280;3928;42.626;23.382;2023-08-20T08:45:09;94453.25;;;34.19;30.26
7768;BME280;3928;42.626;23.382;2023-08-20T08:47:39;94442.72;;;33.93;28.45
7768;BME280;3928;42.626;23.382;2023-08-20T08:50:08;94464.56;;;34.05;29.14
7768;BME280;3928;42.626;23.382;2023-08-20T08:52:36;94466.72;;;34.09;30.58
7768;BME280;3928;42.626;23.382;2023-08-20T08:55:04;94463.25;;;34.33;29.67
7768;BME280;3928;42.626;23.382;2023-08-20T08:57:35;94463.13;;;34.43;29.47
7768;BME280;3928;42.626;23.382;2023-08-20T09:00:02;94459.47;;;34.52;28.46
7768;BME280;3928;42.626;23.382;2023-08-20T09:02:29;94466.44;;;34.77;28.53
7768;BME280;3928;42.626;23.382;2023-08-20T09:04:57;94456.63;;;34.94;28.35
7768;BME280;3928;42.626;23.382;2023-08-20T09:07:23;94475.28;;;34.94;27.22
7768;BME280;3928;42.626;23.382;2023-08-20T09:09:50;94470.72;;;35.11;28.79
7768;BME280;3928;42.626;23.382;2023-08-20T09:12:18;94460.53;;;35.23;28.27
7768;BME280;3928;42.626;23.382;2023-08-20T09:14:49;94454.50;;;35.29;27.70
7768;BME280;3928;42.626;23.382;2023-08-20T09:17:16;94460.25;;;35.57;28.28
7768;BME280;3928;42.626;23.382;2023-08-20T09:19:44;94453.31;;;35.79;27.60
7768;BME280;3928;42.626;23.382;2023-08-20T09:22:11;94458.22;;;35.98;27.53
7768;BME280;3928;42.626;23.382;2023-08-20T09:24:40;94457.00;;;36.09;25.85
7768;BME280;3928;42.626;23.382;2023-08-20T09:27:08;94438.88;;;35.96;25.98
7768;BME280;3928;42.626;23.382;2023-08-20T09:29:44;94452.97;;;36.13;26.29
7768;BME280;3928;42.626;23.382;2023-08-20T09:32:16;94443.13;;;36.13;25.59
7768;BME280;3928;42.626;23.382;2023-08-20T09:34:43;94452.38;;;36.25;24.73
7768;BME280;3928;42.626;23.382;2023-08-20T09:37:11;94426.59;;;36.10;25.41
7768;BME280;3928;42.626;23.382;2023-08-20T09:39:39;94456.56;;;36.20;25.47
7768;BME280;3928;42.626;23.382;2023-08-20T09:42:06;94445.19;;;36.26;25.50
7768;BME280;3928;42.626;23.382;2023-08-20T09:44:34;94447.09;;;35.86;25.15
7768;BME280;3928;42.626;23.382;2023-08-20T09:47:03;94431.16;;;35.70;24.37
7768;BME280;3928;42.626;23.382;2023-08-20T09:49:36;94457.09;;;35.92;25.38
7768;BME280;3928;42.626;23.382;2023-08-20T09:52:04;94447.97;;;36.10;25.35
7768;BME280;3928;42.626;23.382;2023-08-20T09:54:39;94448.13;;;36.39;24.73
7768;BME280;3928;42.626;23.382;2023-08-20T09:57:14;94441.44;;;36.58;25.20
7768;BME280;3928;42.626;23.382;2023-08-20T09:59:41;94443.31;;;36.72;24.52
7768;BME280;3928;42.626;23.382;2023-08-20T10:02:12;94444.63;;;36.76;24.51
7768;BME280;3928;42.626;23.382;2023-08-20T10:04:42;94444.81;;;36.75;24.81
7768;BME280;3928;42.626;23.382;2023-08-20T10:07:10;94448.34;;;36.90;24.42
7768;BME280;3928;42.626;23.382;2023-08-20T10:09:38;94441.91;;;36.99;24.33
7768;BME280;3928;42.626;23.382;2023-08-20T10:12:06;94434.44;;;37.09;23.91
7768;BME280;3928;42.626;23.382;2023-08-20T10:14:33;94449.28;;;37.27;23.81
7768;BME280;3928;42.626;23.382;2023-08-20T10:17:06;94446.13;;;37.31;24.88
7768;BME280;3928;42.626;23.382;2023-08-20T10:19:33;94433.16;;;37.20;24.16
7768;BME280;3928;42.626;23.382;2023-08-20T10:22:03;94447.19;;;37.37;24.57
7768;BME280;3928;42.626;23.382;2023-08-20T10:24:40;94444.88;;;37.49;24.05
7768;BME280;3928;42.626;23.382;2023-08-20T10:27:08;94436.31;;;37.38;24.37
7768;BME280;3928;42.626;23.382;2023-08-20T10:29:36;94437.31;;;37.52;24.99
7768;BME280;3928;42.626;23.382;2023-08-20T10:32:05;94442.28;;;37.70;24.60
7768;BME280;3928;42.626;23.382;2023-08-20T10:34:32;94434.81;;;37.80;24.30
7768;BME280;3928;42.626;23.382;2023-08-20T10:37:03;94434.22;;;37.85;24.17
7768;BME280;3928;42.626;23.382;2023-08-20T10:39:35;94439.34;;;37.80;23.95
7768;BME280;3928;42.626;23.382;2023-08-20T10:42:27;94433.97;;;37.50;25.12
7768;BME280;3928;42.626;23.382;2023-08-20T10:45:00;94421.72;;;37.41;25.15
7768;BME280;3928;42.626;23.382;2023-08-20T10:47:42;94425.88;;;37.43;25.14
7768;BME280;3928;42.626;23.382;2023-08-20T10:50:11;94419.97;;;37.33;25.17
7768;BME280;3928;42.626;23.382;2023-08-20T10:52:40;94422.72;;;37.55;24.47
7768;BME280;3928;42.626;23.382;2023-08-20T10:55:08;94411.78;;;37.71;25.33
7768;BME280;3928;42.626;23.382;2023-08-20T10:57:35;94402.66;;;37.80;24.21
7768;BME280;3928;42.626;23.382;2023-08-20T11:00:06;94413.22;;;37.88;25.15
7768;BME280;3928;42.626;23.382;2023-08-20T11:02:37;94399.69;;;37.90;24.69
7768;BME280;3928;42.626;23.382;2023-08-20T11:05:09;94412.25;;;37.74;24.98
7768;BME280;3928;42.626;23.382;2023-08-20T11:07:45;94411.97;;;37.84;25.07
7768;BME280;3928;42.626;23.382;2023-08-20T11:10:13;94404.50;;;37.80;24.21
7768;BME280;3928;42.626;23.382;2023-08-20T11:12:40;94403.66;;;38.00;25.54
7768;BME280;3928;42.626;23.382;2023-08-20T11:15:09;94404.97;;;38.04;24.62
7768;BME280;3928;42.626;23.382;2023-08-20T11:17:40;94399.59;;;37.83;24.09
7768;BME280;3928;42.626;23.382;2023-08-20T11:20:08;94406.69;;;37.91;25.39
7768;BME280;3928;42.626;23.382;2023-08-20T11:22:37;94393.63;;;37.66;24.25
7768;BME280;3928;42.626;23.382;2023-08-20T11:25:06;94394.13;;;37.77;23.75
7768;BME280;3928;42.626;23.382;2023-08-20T11:27:33;94398.91;;;37.96;23.86
7768;BME280;3928;42.626;23.382;2023-08-20T11:30:00;94392.78;;;38.23;24.24
7768;BME280;3928;42.626;23.382;2023-08-20T11:32:27;94390.72;;;38.47;24.09
7768;BME280;3928;42.626;23.382;2023-08-20T11:34:54;94392.50;;;38.61;23.55
7768;BME280;3928;42.626;23.382;2023-08-20T11:37:21;94393.50;;;38.81;23.80
7768;BME280;3928;42.626;23.382;2023-08-20T11:39:48;94386.38;;;38.67;22.53
7768;BME280;3928;42.626;23.382;2023-08-20T11:42:16;94394.53;;;38.59;23.31
7768;BME280;3928;42.626;23.382;2023-08-20T11:44:45;94391.84;;;38.59;23.82
7768;BME280;3928;42.626;23.382;2023-08-20T11:47:16;94389.75;;;38.76;23.90
7768;BME280;3928;42.626;23.382;2023-08-20T11:49:43;94389.78;;;38.82;22.33
7768;BME280;3928;42.626;23.382;2023-08-20T11:52:11;94378.41;;;38.74;23.41
7768;BME280;3928;42.626;23.382;2023-08-20T11:54:38;94389.00;;;38.88;24.72
7768;BME280;3928;42.626;23.382;2023-08-20T11:57:06;94388.97;;;39.10;24.10
7768;BME280;3928;42.626;23.382;2023-08-20T11:59:35;94389.97;;;39.43;24.12
7768;BME280;3928;42.626;23.382;2023-08-20T12:02:02;94380.13;;;39.64;23.12
7768;BME280;3928;42.626;23.382;2023-08-20T12:04:30;94378.13;;;39.79;22.79
7768;BME280;3928;42.626;23.382;2023-08-20T12:07:04;94382.06;;;39.83;23.43
7768;BME280;3928;42.626;23.382;2023-08-20T12:09:31;94369.06;;;39.93;23.09
7768;BME280;3928;42.626;23.382;2023-08-20T12:11:59;94376.16;;;40.08;23.07
7768;BME280;3928;42.626;23.382;2023-08-20T12:14:26;94369.13;;;40.20;22.96
7768;BME280;3928;42.626;23.382;2023-08-20T12:16:54;94362.94;;;40.39;23.37
7768;BME280;3928;42.626;23.382;2023-08-20T12:19:21;94369.81;;;40.61;23.15
7768;BME280;3928;42.626;23.382;2023-08-20T12:21:48;94365.84;;;40.71;22.30
7768;BME280;3928;42.626;23.382;2023-08-20T12:24:15;94360.84;;;40.81;22.44
7768;BME280;3928;42.626;23.382;2023-08-20T12:26:44;94363.16;;;40.57;21.63
7768;BME280;3928;42.626;23.382;2023-08-20T12:29:11;94364.00;;;40.51;22.25
7768;BME280;3928;42.626;23.382;2023-08-20T12:31:38;94365.66;;;40.52;22.49
7768;BME280;3928;42.626;23.382;2023-08-20T12:34:07;94351.56;;;40.70;21.77
7768;BME280;3928;42.626;23.382;2023-08-20T12:36:35;94353.66;;;40.88;21.39
7768;BME280;3928;42.626;23.382;2023-08-20T12:39:02;94354.03;;;40.92;21.81
7768;BME280;3928;42.626;23.382;2023-08-20T12:41:30;94352.38;;;40.97;22.23
7768;BME280;3928;42.626;23.382;2023-08-20T12:43:57;94357.31;;;41.07;23.27
7768;BME280;3928;42.626;23.382;2023-08-20T12:46:24;94337.88;;;40.92;22.11
7768;BME280;3928;42.626;23.382;2023-08-20T12:48:50;94352.00;;;40.87;21.17
7768;BME280;3928;42.626;23.382;2023-08-20T12:51:19;94356.50;;;40.80;21.94
7768;BME280;3928;42.626;23.382;2023-08-20T12:53:45;94353.59;;;40.81;22.61
7768;BME280;3928;42.626;23.382;2023-08-20T12:56:12;94342.88;;;40.88;21.68
7768;BME280;3928;42.626;23.382;2023-08-20T12:58:41;94332.50;;;40.98;22.45
7768;BME280;3928;42.626;23.382;2023-08-20T13:01:08;94345.53;;;41.01;21.94
7768;BME280;3928;42.626;23.382;2023-08-20T13:03:35;94347.63;;;40.99;21.95
7768;BME280;3928;42.626;23.382;2023-08-20T13:06:04;94345.97;;;40.98;21.99
7768;BME280;3928;42.626;23.382;2023-08-20T13:08:33;94297.34;;;40.33;21.74
7768;BME280;3928;42.626;23.382;2023-08-20T13:11:00;94348.22;;;40.22;22.17
7768;BME280;3928;42.626;23.382;2023-08-20T13:13:28;94341.41;;;40.19;23.50
7768;BME280;3928;42.626;23.382;2023-08-20T13:15:58;94352.56;;;40.23;22.66